Time;durP1;ratioP1;P1;durP2;ratioP2;P2;SDS_P1;SDS_P2;PMS_P1;PMS_P2;Temp;Humidity;BMP_temperature;BMP_pressure;BME280_temperature;BME280_humidity;BME280_pressure;Samples;Min_cycle;Max_cycle;Signal;HPM_P1;HPM_P2
2022/04/05 00:12:49;;;;;;;18.35;2.55;;;7.40;99.90;;;;;;6252136;22;20028;-89
2022/04/05 00:15:15;;;;;;;21.80;2.63;;;7.40;99.90;;;;;;6195482;23;20353;-92
2022/04/05 00:17:41;;;;;;;22.63;2.57;;;7.40;99.90;;;;;;6195367;23;20428;-91
2022/04/05 00:20:08;;;;;;;22.20;2.70;;;7.40;99.90;;;;;;6220271;23;20323;-90
2022/04/05 00:22:34;;;;;;;20.65;2.85;;;7.40;99.90;;;;;;6220489;23;20027;-94
2022/04/05 00:25:00;;;;;;;20.15;2.90;;;7.40;99.90;;;;;;6195339;23;20016;-94
2022/04/05 00:27:26;;;;;;;20.10;2.60;;;7.40;99.90;;;;;;6195299;23;20020;-91
2022/04/05 00:29:55;;;;;;;22.80;2.97;;;7.30;99.90;;;;;;6195175;23;20255;-90
2022/04/05 00:32:21;;;;;;;22.95;2.88;;;7.40;99.90;;;;;;6195151;23;20104;-88
2022/04/05 00:34:46;;;;;;;20.88;2.75;;;7.40;99.90;;;;;;6195315;23;20012;-92
2022/04/05 00:37:12;;;;;;;20.50;2.90;;;7.40;99.90;;;;;;6220529;23;20081;-92
2022/04/05 00:39:38;;;;;;;26.80;3.77;;;7.30;99.90;;;;;;6220251;23;20073;-92
2022/04/05 00:42:04;;;;;;;19.50;2.70;;;7.30;99.90;;;;;;6195448;23;20023;-90
2022/04/05 00:44:30;;;;;;;20.70;3.28;;;7.30;99.90;;;;;;6195697;23;20020;-90
2022/04/05 00:47:00;;;;;;;24.13;3.40;;;7.30;99.90;;;;;;6220358;23;20019;-92
2022/04/05 00:49:35;;;;;;;25.17;2.85;;;7.30;99.90;;;;;;6195104;23;20019;-94
2022/04/05 00:52:01;;;;;;;21.98;3.03;;;7.30;99.90;;;;;;6220797;23;20018;-90
2022/04/05 00:54:30;;;;;;;26.95;2.67;;;7.30;99.90;;;;;;6195793;23;20063;-91
2022/04/05 00:56:57;;;;;;;24.40;3.40;;;7.20;99.90;;;;;;6245320;23;20020;-92
2022/04/05 00:59:26;;;;;;;18.65;3.72;;;7.20;99.90;;;;;;6195121;23;20019;-90
2022/04/05 01:04:29;;;;;;;22.85;3.15;;;7.20;99.90;;;;;;6282136;22;20024;-96
2022/04/05 01:07:18;;;;;;;22.35;2.80;;;7.20;99.90;;;;;;6281034;22;20027;-95
2022/04/05 01:09:44;;;;;;;29.10;2.75;;;7.20;99.90;;;;;;6260637;22;20026;-96
2022/04/05 01:12:13;;;;;;;15.07;2.38;;;7.20;99.90;;;;;;6238787;22;20486;-95
2022/04/05 01:14:40;;;;;;;29.02;3.65;;;7.20;99.90;;;;;;6262726;22;20015;-96
2022/04/05 01:17:07;;;;;;;20.05;2.35;;;7.20;99.90;;;;;;6231798;22;20024;-88
2022/04/05 01:19:33;;;;;;;15.30;2.00;;;7.10;99.90;;;;;;6254668;22;20073;-96
2022/04/05 01:24:34;;;;;;;11.77;1.50;;;7.00;99.90;;;;;;6246715;22;20020;-93
2022/04/05 01:27:27;;;;;;;17.53;2.13;;;7.00;99.90;;;;;;6220355;23;20030;-89
2022/04/05 01:29:53;;;;;;;19.13;2.05;;;7.00;99.90;;;;;;6220412;23;20016;-91
2022/04/05 01:32:19;;;;;;;17.05;1.90;;;7.00;99.90;;;;;;6246705;23;20016;-93
2022/04/05 01:34:45;;;;;;;15.43;2.00;;;7.00;99.90;;;;;;6195398;23;20054;-91
2022/04/05 01:37:11;;;;;;;13.57;1.70;;;6.90;99.90;;;;;;6195209;23;20016;-93
2022/04/05 01:39:39;;;;;;;9.98;1.60;;;6.90;99.90;;;;;;6247022;23;20344;-92
2022/04/05 01:42:37;;;;;;;15.63;1.60;;;6.90;99.90;;;;;;6220128;23;20016;-92
2022/04/05 01:46:03;;;;;;;19.52;2.33;;;6.90;99.90;;;;;;6221344;23;20039;-93
2022/04/05 01:48:29;;;;;;;13.65;1.60;;;6.90;99.90;;;;;;6221801;23;20016;-96
2022/04/05 01:50:54;;;;;;;16.60;1.87;;;6.90;99.90;;;;;;6197055;23;20147;-96
2022/04/05 01:53:20;;;;;;;18.83;2.30;;;6.80;99.90;;;;;;6197009;23;20009;-95
2022/04/05 01:55:46;;;;;;;19.90;2.70;;;6.80;99.90;;;;;;6196028;23;20074;-95
2022/04/05 01:58:11;;;;;;;18.13;2.23;;;6.80;99.90;;;;;;6197437;23;20082;-96
2022/04/05 02:01:02;;;;;;;19.13;2.00;;;6.80;99.90;;;;;;6206187;23;20019;-96
2022/04/05 02:04:00;;;;;;;16.00;2.17;;;6.80;99.90;;;;;;6240216;23;20059;-92
2022/04/05 02:06:36;;;;;;;15.55;1.85;;;6.80;99.90;;;;;;6216828;23;20051;-93
2022/04/05 02:09:17;;;;;;;12.00;1.80;;;6.80;99.90;;;;;;6261023;23;20085;-96
2022/04/05 02:12:04;;;;;;;18.02;1.98;;;6.80;99.90;;;;;;6203877;23;20017;-96
2022/04/05 02:14:30;;;;;;;14.60;1.77;;;6.70;99.90;;;;;;6203766;23;20087;-94
2022/04/05 02:16:55;;;;;;;12.63;1.53;;;6.70;99.90;;;;;;6205594;23;20016;-96
2022/04/05 02:19:46;;;;;;;21.60;3.10;;;6.70;99.90;;;;;;6206846;23;20016;-93
2022/04/05 02:22:39;;;;;;;15.65;1.60;;;6.70;99.90;;;;;;6206362;23;20020;-94
2022/04/05 02:25:06;;;;;;;22.20;2.38;;;6.60;99.90;;;;;;6198313;23;20022;-96
2022/04/05 02:27:31;;;;;;;18.55;2.50;;;6.60;99.90;;;;;;6223607;23;20020;-96
2022/04/05 02:29:57;;;;;;;15.13;2.07;;;6.60;99.90;;;;;;6196894;23;20074;-91
2022/04/05 02:32:23;;;;;;;16.77;2.07;;;6.60;99.90;;;;;;6198094;23;20070;-96
2022/04/05 02:35:11;;;;;;;20.30;2.33;;;6.60;99.90;;;;;;6223421;23;20020;-96
2022/04/05 02:37:38;;;;;;;19.88;2.00;;;6.60;99.90;;;;;;6196474;23;20017;-94
2022/04/05 02:40:22;;;;;;;15.10;1.70;;;6.60;99.90;;;;;;6219800;23;20024;-92
2022/04/05 02:42:48;;;;;;;14.73;3.53;;;6.60;99.90;;;;;;6194272;23;20020;-94
2022/04/05 02:45:14;;;;;;;11.90;2.27;;;6.60;99.90;;;;;;6194661;23;20019;-95
2022/04/05 02:47:39;;;;;;;16.70;1.73;;;6.60;99.90;;;;;;6194727;23;20099;-91
2022/04/05 02:50:05;;;;;;;14.93;1.80;;;6.60;99.90;;;;;;6194759;23;20019;-94
2022/04/05 02:52:31;;;;;;;15.73;1.70;;;6.60;99.90;;;;;;6194830;23;20016;-95
2022/04/05 02:54:57;;;;;;;25.97;2.30;;;6.60;99.90;;;;;;6194648;23;20505;-96
2022/04/05 02:57:22;;;;;;;19.63;1.93;;;6.60;99.90;;;;;;6194566;23;20019;-92
2022/04/05 02:59:48;;;;;;;16.73;2.03;;;6.60;99.90;;;;;;6195185;23;20074;-95
2022/04/05 03:02:14;;;;;;;15.93;2.10;;;6.60;99.90;;;;;;6219971;23;20356;-96
2022/04/05 03:04:40;;;;;;;19.03;1.80;;;6.60;99.90;;;;;;6195172;23;20389;-95
2022/04/05 03:07:05;;;;;;;11.97;1.90;;;6.60;99.90;;;;;;6194805;23;20054;-94
2022/04/05 03:09:59;;;;;;;17.53;2.10;;;6.50;99.90;;;;;;6195887;23;20016;-88
2022/04/05 03:12:24;;;;;;;22.83;2.40;;;6.60;99.90;;;;;;6196121;23;20019;-93
2022/04/05 03:14:50;;;;;;;23.47;2.27;;;6.60;99.90;;;;;;6221565;23;20353;-94
2022/04/05 03:17:16;;;;;;;13.90;2.00;;;6.50;99.90;;;;;;6196596;23;20023;-93
2022/04/05 03:19:42;;;;;;;17.87;2.40;;;6.50;99.90;;;;;;6196658;23;20020;-95
2022/04/05 03:22:09;;;;;;;18.33;2.37;;;6.50;99.90;;;;;;6201232;23;20020;-94
2022/04/05 03:32:14;;;;;;;20.80;2.42;;;6.50;99.90;;;;;;6244273;23;20088;-89
2022/04/05 03:34:40;;;;;;;17.25;1.92;;;6.50;99.90;;;;;;6231449;23;20027;-95
2022/04/05 03:37:06;;;;;;;18.67;2.35;;;6.50;99.90;;;;;;6234914;23;20022;-96
2022/04/05 03:40:07;;;;;;;18.00;2.43;;;6.50;99.90;;;;;;6227567;23;20090;-87
2022/04/05 03:42:33;;;;;;;20.88;2.20;;;6.50;99.90;;;;;;6222742;23;20480;-96
2022/04/05 03:45:26;;;;;;;17.02;2.35;;;6.50;99.90;;;;;;6252172;23;20013;-90
2022/04/05 03:50:28;;;;;;;15.25;2.40;;;6.50;99.90;;;;;;6299954;22;20023;-96
2022/04/05 03:53:20;;;;;;;13.13;1.80;;;6.50;99.90;;;;;;6301574;22;20027;-92
2022/04/05 03:55:48;;;;;;;14.63;2.10;;;6.40;99.90;;;;;;6249257;22;20004;-89
2022/04/05 03:58:15;;;;;;;16.77;1.95;;;6.50;99.90;;;;;;6272060;22;20052;-92
2022/04/05 04:03:20;;;;;;;18.08;1.90;;;6.40;99.90;;;;;;6263831;22;20020;-92
2022/04/05 04:05:46;;;;;;;15.82;2.15;;;6.40;99.90;;;;;;6244487;22;20008;-92
2022/04/05 04:08:11;;;;;;;17.40;3.13;;;6.40;99.90;;;;;;6216996;22;20012;-95
2022/04/05 04:10:38;;;;;;;22.60;2.25;;;6.40;99.90;;;;;;6257079;22;20027;-94
2022/04/05 04:13:04;;;;;;;16.57;2.73;;;6.40;99.90;;;;;;6259435;22;20016;-95
2022/04/05 04:15:56;;;;;;;15.45;1.58;;;6.40;99.90;;;;;;6291671;22;20020;-96
2022/04/05 04:18:24;;;;;;;17.38;1.90;;;6.40;99.90;;;;;;6242834;22;20095;-95
2022/04/05 04:21:18;;;;;;;16.97;2.40;;;6.40;99.90;;;;;;6229368;22;20356;-91
2022/04/05 04:23:44;;;;;;;14.00;1.63;;;6.40;99.90;;;;;;6228423;22;20023;-95
2022/04/05 04:26:10;;;;;;;18.52;2.80;;;6.40;99.90;;;;;;6261484;22;20047;-95
2022/04/05 04:28:39;;;;;;;18.53;2.10;;;6.40;99.90;;;;;;6268967;22;20023;-92
2022/04/05 04:33:40;;;;;;;17.00;2.03;;;6.40;99.90;;;;;;6288553;22;20020;-94
2022/04/05 04:41:02;;;;;;;18.98;1.98;;;6.40;99.90;;;;;;6247692;23;20030;-94
2022/04/05 04:43:28;;;;;;;17.33;1.83;;;6.40;99.90;;;;;;6202180;23;20082;-96
2022/04/05 04:45:54;;;;;;;13.63;2.20;;;6.40;99.90;;;;;;6197784;23;20012;-90
2022/04/05 04:48:21;;;;;;;16.33;2.08;;;6.40;99.90;;;;;;6222820;23;20096;-96
2022/04/05 04:51:12;;;;;;;21.67;2.47;;;6.40;99.90;;;;;;6196364;23;20020;-95
2022/04/05 04:53:38;;;;;;;16.27;1.90;;;6.40;99.90;;;;;;6206398;23;20016;-95
2022/04/05 04:58:57;;;;;;;15.73;2.22;;;6.40;99.90;;;;;;6305259;22;20053;-96
2022/04/05 05:03:58;;;;;;;20.67;2.20;;;6.40;99.90;;;;;;6286899;22;20024;-87
2022/04/05 05:06:24;;;;;;;21.13;2.20;;;6.40;99.90;;;;;;6272913;22;20023;-89
2022/04/05 05:11:49;;;;;;;15.10;1.63;;;6.40;99.90;;;;;;6252340;22;20035;-92
2022/04/05 05:19:52;;;;;;;20.77;2.72;;;6.40;99.90;;;;;;6262885;22;19915;-90
2022/04/05 05:22:33;;;;;;;15.15;1.85;;;6.40;99.90;;;;;;6212476;23;20058;-96
2022/04/05 05:24:58;;;;;;;16.00;1.90;;;6.40;99.90;;;;;;6242405;22;20012;-93
2022/04/05 05:30:00;;;;;;;14.80;2.15;;;6.40;99.90;;;;;;6258366;22;20024;-94
2022/04/05 05:32:31;;;;;;;16.90;2.23;;;6.40;99.90;;;;;;6219657;23;20026;-92
2022/04/05 05:34:57;;;;;;;12.88;2.53;;;6.50;99.90;;;;;;6195581;23;20016;-88
2022/04/05 05:37:23;;;;;;;19.70;3.43;;;6.50;99.90;;;;;;6195677;23;20019;-92
2022/04/05 05:39:48;;;;;;;21.63;3.30;;;6.50;99.90;;;;;;6250648;22;20019;-95
2022/04/05 05:42:14;;;;;;;20.00;2.73;;;6.50;99.90;;;;;;6225312;22;20388;-91
2022/04/05 05:44:40;;;;;;;18.43;2.57;;;6.50;99.90;;;;;;6232305;22;20015;-86
2022/04/05 05:47:08;;;;;;;18.98;3.05;;;6.60;99.90;;;;;;6244314;22;20012;-87
2022/04/05 05:49:34;;;;;;;14.85;2.75;;;6.60;99.90;;;;;;6241553;22;20054;-92
2022/04/05 05:52:00;;;;;;;23.93;3.17;;;6.60;99.90;;;;;;6268142;22;20090;-93
2022/04/05 05:54:52;;;;;;;18.53;2.83;;;6.60;99.90;;;;;;6240785;22;20302;-90
2022/04/05 05:57:25;;;;;;;20.67;2.80;;;6.60;99.90;;;;;;6275844;22;20027;-93
2022/04/05 05:59:50;;;;;;;22.25;2.85;;;6.70;99.90;;;;;;6236481;22;20012;-94
2022/04/05 06:15:17;;;;;;;25.42;2.38;;;6.80;99.90;;;;;;6275922;22;20020;-94
2022/04/05 12:44:48;;;;;;;4.53;2.13;;;9.30;99.90;;;;;;6262997;22;20091;-92
2022/04/05 15:03:37;;;;;;;23.30;9.93;;;9.60;99.90;;;;;;6292069;22;20023;-93
2022/04/05 15:06:10;;;;;;;22.65;9.90;;;9.60;99.90;;;;;;6274465;22;20011;-93
2022/04/05 15:58:00;;;;;;;34.05;15.32;;;9.90;99.90;;;;;;6272986;22;20024;-94
2022/04/05 16:00:26;;;;;;;23.73;11.32;;;9.90;99.90;;;;;;6222776;23;20024;-96
2022/04/05 16:02:52;;;;;;;25.83;9.73;;;9.90;99.90;;;;;;6199005;23;20106;-95
2022/04/05 16:05:18;;;;;;;26.17;14.35;;;9.90;99.90;;;;;;6198228;23;20027;-93
2022/04/05 16:07:45;;;;;;;23.60;10.20;;;10.00;99.90;;;;;;6200753;23;20096;-94
2022/04/05 16:10:10;;;;;;;;;;;9.90;99.90;;;;;;6199937;23;20016;-94
2022/04/05 16:12:37;;;;;;;17.02;8.77;;;9.90;99.90;;;;;;6227690;23;19933;-92
2022/04/05 16:17:38;;;;;;;17.30;8.48;;;10.00;99.90;;;;;;6280757;22;20094;-96
2022/04/05 16:20:04;;;;;;;21.83;8.37;;;10.00;99.90;;;;;;6230042;22;20094;-90
2022/04/05 16:22:30;;;;;;;22.55;9.57;;;9.90;99.90;;;;;;6228558;22;20007;-93
2022/04/05 16:24:55;;;;;;;19.27;8.13;;;10.00;99.90;;;;;;6278386;22;20074;-95
2022/04/05 16:27:22;;;;;;;24.83;10.70;;;9.90;99.90;;;;;;6278186;22;20019;-92
2022/04/05 16:29:48;;;;;;;26.23;11.35;;;9.90;99.90;;;;;;6225923;22;20012;-93
2022/04/05 16:32:19;;;;;;;22.90;12.10;;;9.90;99.90;;;;;;6227130;22;20012;-93
2022/04/05 16:40:00;;;;;;;19.98;8.75;;;9.90;99.90;;;;;;6259014;22;20467;-95
2022/04/05 16:48:11;;;;;;;18.08;7.78;;;9.80;99.90;;;;;;6315640;22;20047;-93
2022/04/05 16:50:37;;;;;;;19.47;7.70;;;9.80;99.90;;;;;;6262773;22;20023;-92
2022/04/05 16:53:05;;;;;;;24.65;8.82;;;9.80;99.90;;;;;;6260930;22;20348;-90
2022/04/05 16:55:32;;;;;;;22.27;7.60;;;9.80;99.90;;;;;;6262216;22;20021;-94
2022/04/05 16:57:58;;;;;;;18.20;7.22;;;9.80;99.90;;;;;;6319070;22;20021;-94
2022/04/05 17:00:24;;;;;;;15.57;7.50;;;9.70;99.90;;;;;;6267126;22;20039;-93
2022/04/05 17:02:51;;;;;;;;;;;9.70;99.90;;;;;;6290581;22;20022;-94
2022/04/05 17:05:20;;;;;;;25.40;9.53;;;9.70;99.90;;;;;;6286918;22;19914;-94
2022/04/05 17:07:47;;;;;;;19.83;8.57;;;9.70;99.90;;;;;;6261378;22;20033;-91
2022/04/05 17:10:13;;;;;;;20.92;10.70;;;9.60;99.90;;;;;;6264702;22;20015;-95
2022/04/05 17:12:39;;;;;;;19.60;9.90;;;9.60;99.90;;;;;;6283043;22;20018;-96
2022/04/05 17:15:08;;;;;;;21.10;10.50;;;9.60;99.90;;;;;;6257106;22;20341;-95
2022/04/05 17:17:38;;;;;;;20.40;8.88;;;9.60;99.90;;;;;;6256773;22;20104;-90
2022/04/05 17:20:05;;;;;;;23.30;11.13;;;9.50;99.90;;;;;;6259348;22;20401;-93
2022/04/05 17:22:31;;;;;;;;;;;9.50;99.90;;;;;;6259055;22;20098;-92
2022/04/05 17:24:58;;;;;;;21.73;12.55;;;9.50;99.90;;;;;;6261774;22;20218;-92
2022/04/05 17:27:29;;;;;;;27.85;14.75;;;9.50;99.90;;;;;;6280849;22;20072;-95
2022/04/05 17:29:56;;;;;;;24.45;11.88;;;9.40;99.90;;;;;;6261420;22;20023;-94
2022/04/05 17:32:21;;;;;;;23.63;10.82;;;9.40;99.90;;;;;;6262888;22;20094;-96
2022/04/05 17:34:47;;;;;;;23.70;10.23;;;9.40;99.90;;;;;;6258053;22;20055;-93
2022/04/05 17:37:15;;;;;;;16.27;8.93;;;9.40;99.90;;;;;;6257677;22;20043;-95
2022/04/05 17:39:42;;;;;;;24.38;11.57;;;9.40;99.90;;;;;;6256972;22;20524;-93
2022/04/05 17:42:08;;;;;;;27.50;13.35;;;9.30;99.90;;;;;;6256571;22;20011;-93
2022/04/05 17:44:34;;;;;;;28.23;9.68;;;9.30;99.90;;;;;;6257714;22;20022;-94
2022/04/05 17:47:02;;;;;;;19.42;8.95;;;9.30;99.90;;;;;;6259608;22;20019;-96
2022/04/05 17:49:34;;;;;;;24.58;8.85;;;9.30;99.90;;;;;;6292032;22;20011;-96
2022/04/05 17:52:07;;;;;;;18.98;8.32;;;9.30;99.90;;;;;;6258241;22;20046;-96
2022/04/05 17:54:32;;;;;;;21.02;8.57;;;9.30;99.90;;;;;;6261650;22;20037;-95
2022/04/05 17:56:59;;;;;;;25.13;9.40;;;9.30;99.90;;;;;;6262590;22;20070;-94
2022/04/05 17:59:49;;;;;;;;;;;9.30;99.90;;;;;;6257620;22;20022;-96
2022/04/05 18:31:09;;;;;;;19.35;8.00;;;9.10;99.90;;;;;;6251074;23;20026;-92
2022/04/05 18:33:42;;;;;;;18.65;7.15;;;9.10;99.90;;;;;;6239187;22;20023;-89
2022/04/05 18:36:08;;;;;;;22.02;7.95;;;9.10;99.90;;;;;;6268746;22;20046;-89
2022/04/05 20:10:06;;;;;;;18.30;6.53;;;8.90;99.90;;;;;;6276545;22;20341;-91
2022/04/05 20:12:35;;;;;;;18.63;6.07;;;9.00;99.90;;;;;;6226221;22;20054;-94
2022/04/05 22:09:56;;;;;;;17.75;6.70;;;8.70;99.90;;;;;;6276539;22;20365;-95
2022/04/05 22:12:21;;;;;;;19.63;6.60;;;8.70;99.90;;;;;;6233662;22;20023;-86
2022/04/05 22:14:47;;;;;;;15.30;6.60;;;8.70;99.90;;;;;;6287422;22;20039;-93
2022/04/05 22:17:35;;;;;;;21.60;6.97;;;8.70;99.90;;;;;;6232723;22;20019;-93
2022/04/05 22:20:00;;;;;;;16.90;6.72;;;8.70;99.90;;;;;;6234415;22;20027;-94
2022/04/05 22:22:26;;;;;;;19.37;7.07;;;8.70;99.90;;;;;;6231177;22;20016;-92
2022/04/05 22:24:52;;;;;;;17.70;6.80;;;8.70;99.90;;;;;;6229067;22;20453;-93
2022/04/05 22:27:17;;;;;;;19.90;7.33;;;8.70;99.90;;;;;;6228614;22;20016;-91
2022/04/05 22:29:43;;;;;;;15.43;6.93;;;8.70;99.90;;;;;;6228471;22;20019;-92
2022/04/05 22:32:10;;;;;;;16.97;6.97;;;8.70;99.90;;;;;;6229383;22;20049;-94
2022/04/05 22:34:38;;;;;;;18.63;6.65;;;8.60;99.90;;;;;;6258727;22;20043;-91
2022/04/05 22:37:04;;;;;;;21.98;7.03;;;8.70;99.90;;;;;;6228432;22;20016;-94
2022/04/05 22:44:40;;;;;;;18.13;8.45;;;8.70;99.90;;;;;;6248625;23;20027;-94
2022/04/05 22:47:06;;;;;;;22.70;8.27;;;8.60;99.90;;;;;;6223181;23;20016;-95
2022/04/05 22:49:34;;;;;;;15.40;7.60;;;8.60;99.90;;;;;;6222302;23;20269;-95
2022/04/05 22:52:03;;;;;;;17.77;8.02;;;8.60;99.90;;;;;;6223190;23;20027;-96
2022/04/05 22:54:29;;;;;;;19.60;8.00;;;8.60;99.90;;;;;;6227147;22;20391;-93
2022/04/05 22:56:57;;;;;;;18.20;8.50;;;8.70;99.90;;;;;;6227828;22;20072;-93
2022/04/05 22:59:23;;;;;;;20.30;7.53;;;8.60;99.90;;;;;;6227600;22;20023;-95
2022/04/05 23:01:49;;;;;;;17.92;7.80;;;8.70;99.90;;;;;;6231565;22;20019;-94
2022/04/05 23:04:15;;;;;;;23.23;8.33;;;8.60;99.90;;;;;;6203900;22;20015;-93
2022/04/05 23:06:41;;;;;;;24.10;8.67;;;8.60;99.90;;;;;;6227650;22;20783;-94
2022/04/05 23:09:09;;;;;;;19.98;7.68;;;8.60;99.90;;;;;;6228258;22;20015;-92
2022/04/05 23:11:37;;;;;;;21.30;8.60;;;8.70;99.90;;;;;;6229188;22;20019;-93
2022/04/05 23:14:03;;;;;;;20.45;8.13;;;8.60;99.90;;;;;;6230296;22;20016;-93
2022/04/05 23:16:29;;;;;;;25.38;8.80;;;8.60;99.90;;;;;;6232746;22;20024;-94
2022/04/05 23:18:58;;;;;;;21.60;7.77;;;8.60;99.90;;;;;;6236978;22;20468;-96
2022/04/05 23:21:45;;;;;;;24.27;9.10;;;8.70;99.90;;;;;;6239179;22;20089;-94
